sensor_id;sensor_type;location;lat;lon;timestamp;P1;durP1;ratioP1;P2;durP2;ratioP2
17151;SDS011;8691;50.828;4.700;2023-04-24T00:00:20;13.23;;;11.00;;
17151;SDS011;8691;50.828;4.700;2023-04-24T00:02:47;12.80;;;10.60;;
17151;SDS011;8691;50.828;4.700;2023-04-24T00:05:15;13.75;;;10.45;;
17151;SDS011;8691;50.828;4.700;2023-04-24T00:07:42;15.90;;;11.30;;
17151;SDS011;8691;50.828;4.700;2023-04-24T00:10:08;16.67;;;11.70;;
17151;SDS011;8691;50.828;4.700;2023-04-24T00:12:35;13.77;;;11.03;;
17151;SDS011;8691;50.828;4.700;2023-04-24T00:15:02;10.53;;;8.83;;
17151;SDS011;8691;50.828;4.700;2023-04-24T00:17:29;13.73;;;11.25;;
17151;SDS011;8691;50.828;4.700;2023-04-24T00:19:56;13.52;;;11.30;;
17151;SDS011;8691;50.828;4.700;2023-04-24T00:22:27;16.73;;;11.87;;
17151;SDS011;8691;50.828;4.700;2023-04-24T00:24:54;14.53;;;11.07;;
17151;SDS011;8691;50.828;4.700;2023-04-24T00:27:21;15.33;;;11.47;;
17151;SDS011;8691;50.828;4.700;2023-04-24T00:29:48;14.97;;;11.27;;
17151;SDS011;8691;50.828;4.700;2023-04-24T00:32:15;17.37;;;11.47;;
17151;SDS011;8691;50.828;4.700;2023-04-24T00:34:42;16.07;;;9.60;;
17151;SDS011;8691;50.828;4.700;2023-04-24T00:37:08;14.57;;;10.97;;
17151;SDS011;8691;50.828;4.700;2023-04-24T00:39:35;15.88;;;11.32;;
17151;SDS011;8691;50.828;4.700;2023-04-24T00:42:02;14.47;;;9.37;;
17151;SDS011;8691;50.828;4.700;2023-04-24T00:44:29;14.88;;;11.40;;
17151;SDS011;8691;50.828;4.700;2023-04-24T00:46:55;14.12;;;11.27;;
17151;SDS011;8691;50.828;4.700;2023-04-24T00:49:22;14.25;;;10.98;;
17151;SDS011;8691;50.828;4.700;2023-04-24T00:51:50;12.60;;;9.40;;
17151;SDS011;8691;50.828;4.700;2023-04-24T00:54:17;14.32;;;10.75;;
17151;SDS011;8691;50.828;4.700;2023-04-24T00:56:45;14.17;;;11.10;;
17151;SDS011;8691;50.828;4.700;2023-04-24T00:59:13;15.17;;;11.53;;
17151;SDS011;8691;50.828;4.700;2023-04-24T01:01:40;12.93;;;11.40;;
17151;SDS011;8691;50.828;4.700;2023-04-24T01:04:07;16.65;;;11.90;;
17151;SDS011;8691;50.828;4.700;2023-04-24T01:06:35;15.10;;;11.83;;
17151;SDS011;8691;50.828;4.700;2023-04-24T01:09:02;14.05;;;10.62;;
17151;SDS011;8691;50.828;4.700;2023-04-24T01:11:29;16.73;;;11.63;;
17151;SDS011;8691;50.828;4.700;2023-04-24T01:13:56;15.97;;;11.67;;
17151;SDS011;8691;50.828;4.700;2023-04-24T01:16:23;13.75;;;10.90;;
17151;SDS011;8691;50.828;4.700;2023-04-24T01:18:49;14.50;;;11.15;;
17151;SDS011;8691;50.828;4.700;2023-04-24T01:21:16;14.23;;;10.95;;
17151;SDS011;8691;50.828;4.700;2023-04-24T01:23:44;14.88;;;10.85;;
17151;SDS011;8691;50.828;4.700;2023-04-24T01:26:11;14.38;;;11.30;;
17151;SDS011;8691;50.828;4.700;2023-04-24T01:28:37;15.02;;;11.12;;
17151;SDS011;8691;50.828;4.700;2023-04-24T01:31:04;15.73;;;11.17;;
17151;SDS011;8691;50.828;4.700;2023-04-24T01:33:31;13.48;;;11.50;;
17151;SDS011;8691;50.828;4.700;2023-04-24T01:35:58;14.80;;;11.77;;
17151;SDS011;8691;50.828;4.700;2023-04-24T01:38:25;14.13;;;11.83;;
17151;SDS011;8691;50.828;4.700;2023-04-24T01:40:52;12.82;;;11.32;;
17151;SDS011;8691;50.828;4.700;2023-04-24T01:43:19;15.52;;;11.50;;
17151;SDS011;8691;50.828;4.700;2023-04-24T01:45:45;13.25;;;10.98;;
17151;SDS011;8691;50.828;4.700;2023-04-24T01:48:12;12.80;;;10.75;;
17151;SDS011;8691;50.828;4.700;2023-04-24T01:50:39;12.93;;;11.30;;
17151;SDS011;8691;50.828;4.700;2023-04-24T01:53:06;13.20;;;11.03;;
17151;SDS011;8691;50.828;4.700;2023-04-24T01:55:33;12.60;;;11.10;;
17151;SDS011;8691;50.828;4.700;2023-04-24T01:58:00;12.43;;;10.38;;
17151;SDS011;8691;50.828;4.700;2023-04-24T02:00:26;12.38;;;10.73;;
17151;SDS011;8691;50.828;4.700;2023-04-24T02:02:53;12.23;;;10.35;;
17151;SDS011;8691;50.828;4.700;2023-04-24T02:05:20;12.60;;;10.73;;
17151;SDS011;8691;50.828;4.700;2023-04-24T02:07:47;11.75;;;10.30;;
17151;SDS011;8691;50.828;4.700;2023-04-24T02:10:14;11.45;;;10.15;;
17151;SDS011;8691;50.828;4.700;2023-04-24T02:12:41;12.27;;;10.85;;
17151;SDS011;8691;50.828;4.700;2023-04-24T02:15:08;12.88;;;11.57;;
17151;SDS011;8691;50.828;4.700;2023-04-24T02:17:35;12.85;;;10.82;;
17151;SDS011;8691;50.828;4.700;2023-04-24T02:20:02;13.03;;;9.20;;
17151;SDS011;8691;50.828;4.700;2023-04-24T02:22:29;13.07;;;11.67;;
17151;SDS011;8691;50.828;4.700;2023-04-24T02:24:56;13.63;;;12.33;;
17151;SDS011;8691;50.828;4.700;2023-04-24T02:27:23;14.20;;;12.33;;
17151;SDS011;8691;50.828;4.700;2023-04-24T02:29:51;14.10;;;12.60;;
17151;SDS011;8691;50.828;4.700;2023-04-24T02:32:18;13.80;;;12.30;;
17151;SDS011;8691;50.828;4.700;2023-04-24T02:34:45;15.15;;;13.57;;
17151;SDS011;8691;50.828;4.700;2023-04-24T02:37:13;15.60;;;14.02;;
17151;SDS011;8691;50.828;4.700;2023-04-24T02:39:40;14.53;;;12.90;;
17151;SDS011;8691;50.828;4.700;2023-04-24T02:42:07;16.30;;;13.63;;
17151;SDS011;8691;50.828;4.700;2023-04-24T02:44:34;12.10;;;10.33;;
17151;SDS011;8691;50.828;4.700;2023-04-24T02:47:00;14.47;;;9.97;;
17151;SDS011;8691;50.828;4.700;2023-04-24T02:49:27;14.85;;;13.32;;
17151;SDS011;8691;50.828;4.700;2023-04-24T02:51:54;15.25;;;12.70;;
17151;SDS011;8691;50.828;4.700;2023-04-24T02:54:21;14.77;;;13.35;;
17151;SDS011;8691;50.828;4.700;2023-04-24T02:56:48;14.23;;;12.65;;
17151;SDS011;8691;50.828;4.700;2023-04-24T02:59:15;13.82;;;12.32;;
17151;SDS011;8691;50.828;4.700;2023-04-24T03:01:42;14.27;;;12.73;;
17151;SDS011;8691;50.828;4.700;2023-04-24T03:04:09;14.35;;;11.95;;
17151;SDS011;8691;50.828;4.700;2023-04-24T03:06:37;13.57;;;12.18;;
17151;SDS011;8691;50.828;4.700;2023-04-24T03:09:04;13.30;;;11.90;;
17151;SDS011;8691;50.828;4.700;2023-04-24T03:11:31;12.62;;;11.18;;
17151;SDS011;8691;50.828;4.700;2023-04-24T03:13:58;12.10;;;10.85;;
17151;SDS011;8691;50.828;4.700;2023-04-24T03:16:25;9.63;;;8.57;;
17151;SDS011;8691;50.828;4.700;2023-04-24T03:18:53;12.55;;;11.18;;
17151;SDS011;8691;50.828;4.700;2023-04-24T03:21:20;12.37;;;11.10;;
17151;SDS011;8691;50.828;4.700;2023-04-24T03:23:47;10.70;;;9.67;;
17151;SDS011;8691;50.828;4.700;2023-04-24T03:26:13;9.27;;;7.90;;
17151;SDS011;8691;50.828;4.700;2023-04-24T03:28:40;10.32;;;9.30;;
17151;SDS011;8691;50.828;4.700;2023-04-24T03:31:07;12.32;;;11.02;;
17151;SDS011;8691;50.828;4.700;2023-04-24T03:33:34;12.57;;;10.77;;
17151;SDS011;8691;50.828;4.700;2023-04-24T03:36:01;12.27;;;10.57;;
17151;SDS011;8691;50.828;4.700;2023-04-24T03:38:28;11.40;;;10.25;;
17151;SDS011;8691;50.828;4.700;2023-04-24T03:40:55;10.60;;;9.50;;
17151;SDS011;8691;50.828;4.700;2023-04-24T03:43:22;11.48;;;9.73;;
17151;SDS011;8691;50.828;4.700;2023-04-24T03:45:49;8.80;;;7.33;;
17151;SDS011;8691;50.828;4.700;2023-04-24T03:48:16;11.25;;;8.82;;
17151;SDS011;8691;50.828;4.700;2023-04-24T03:50:44;10.68;;;9.57;;
17151;SDS011;8691;50.828;4.700;2023-04-24T03:53:10;10.30;;;9.27;;
17151;SDS011;8691;50.828;4.700;2023-04-24T03:55:37;10.52;;;9.38;;
17151;SDS011;8691;50.828;4.700;2023-04-24T03:58:04;7.70;;;6.33;;
17151;SDS011;8691;50.828;4.700;2023-04-24T04:00:31;11.20;;;9.30;;
17151;SDS011;8691;50.828;4.700;2023-04-24T04:02:58;10.40;;;9.35;;
17151;SDS011;8691;50.828;4.700;2023-04-24T04:05:25;10.20;;;9.20;;
17151;SDS011;8691;50.828;4.700;2023-04-24T04:07:51;9.93;;;8.83;;
17151;SDS011;8691;50.828;4.700;2023-04-24T04:10:18;7.80;;;7.03;;
17151;SDS011;8691;50.828;4.700;2023-04-24T04:12:45;8.90;;;8.10;;
17151;SDS011;8691;50.828;4.700;2023-04-24T04:15:13;8.43;;;6.97;;
17151;SDS011;8691;50.828;4.700;2023-04-24T04:17:39;8.52;;;7.70;;
17151;SDS011;8691;50.828;4.700;2023-04-24T04:20:06;8.63;;;7.50;;
17151;SDS011;8691;50.828;4.700;2023-04-24T04:22:33;7.88;;;6.75;;
17151;SDS011;8691;50.828;4.700;2023-04-24T04:25:00;7.70;;;7.00;;
17151;SDS011;8691;50.828;4.700;2023-04-24T04:27:27;7.55;;;6.85;;
17151;SDS011;8691;50.828;4.700;2023-04-24T04:29:54;7.40;;;6.70;;
17151;SDS011;8691;50.828;4.700;2023-04-24T04:32:22;6.53;;;5.93;;
17151;SDS011;8691;50.828;4.700;2023-04-24T04:34:49;7.60;;;6.10;;
17151;SDS011;8691;50.828;4.700;2023-04-24T04:37:15;6.53;;;5.93;;
17151;SDS011;8691;50.828;4.700;2023-04-24T04:39:42;7.70;;;6.27;;
17151;SDS011;8691;50.828;4.700;2023-04-24T04:42:09;6.17;;;5.63;;
17151;SDS011;8691;50.828;4.700;2023-04-24T04:44:37;6.30;;;5.70;;
17151;SDS011;8691;50.828;4.700;2023-04-24T04:47:04;6.10;;;5.50;;
17151;SDS011;8691;50.828;4.700;2023-04-24T04:49:31;6.43;;;5.82;;
17151;SDS011;8691;50.828;4.700;2023-04-24T04:52:01;5.93;;;5.40;;
17151;SDS011;8691;50.828;4.700;2023-04-24T04:54:28;6.50;;;5.90;;
17151;SDS011;8691;50.828;4.700;2023-04-24T04:56:54;7.32;;;6.22;;
17151;SDS011;8691;50.828;4.700;2023-04-24T04:59:21;6.60;;;5.90;;
17151;SDS011;8691;50.828;4.700;2023-04-24T05:01:48;7.25;;;6.15;;
17151;SDS011;8691;50.828;4.700;2023-04-24T05:04:15;6.53;;;5.93;;
17151;SDS011;8691;50.828;4.700;2023-04-24T05:06:42;6.32;;;5.72;;
17151;SDS011;8691;50.828;4.700;2023-04-24T05:09:09;5.90;;;5.00;;
17151;SDS011;8691;50.828;4.700;2023-04-24T05:11:36;5.80;;;5.20;;
17151;SDS011;8691;50.828;4.700;2023-04-24T05:14:03;5.67;;;5.17;;
17151;SDS011;8691;50.828;4.700;2023-04-24T05:16:29;5.60;;;5.00;;
17151;SDS011;8691;50.828;4.700;2023-04-24T05:18:57;5.57;;;4.97;;
17151;SDS011;8691;50.828;4.700;2023-04-24T05:21:24;6.10;;;5.50;;
17151;SDS011;8691;50.828;4.700;2023-04-24T05:23:51;7.45;;;6.10;;
17151;SDS011;8691;50.828;4.700;2023-04-24T05:26:18;7.20;;;6.50;;
17151;SDS011;8691;50.828;4.700;2023-04-24T05:28:45;7.80;;;7.00;;
17151;SDS011;8691;50.828;4.700;2023-04-24T05:31:12;7.40;;;6.65;;
17151;SDS011;8691;50.828;4.700;2023-04-24T05:33:39;7.17;;;6.47;;
17151;SDS011;8691;50.828;4.700;2023-04-24T05:36:06;7.53;;;6.20;;
17151;SDS011;8691;50.828;4.700;2023-04-24T05:38:33;8.93;;;6.95;;
17151;SDS011;8691;50.828;4.700;2023-04-24T05:41:00;7.73;;;6.80;;
17151;SDS011;8691;50.828;4.700;2023-04-24T05:43:27;8.70;;;7.80;;
17151;SDS011;8691;50.828;4.700;2023-04-24T05:45:54;8.90;;;7.97;;
17151;SDS011;8691;50.828;4.700;2023-04-24T05:48:22;9.00;;;8.10;;
17151;SDS011;8691;50.828;4.700;2023-04-24T05:50:49;7.93;;;6.33;;
17151;SDS011;8691;50.828;4.700;2023-04-24T05:53:16;8.98;;;8.07;;
17151;SDS011;8691;50.828;4.700;2023-04-24T05:55:43;10.43;;;8.77;;
17151;SDS011;8691;50.828;4.700;2023-04-24T05:58:10;9.70;;;8.73;;
17151;SDS011;8691;50.828;4.700;2023-04-24T06:00:37;12.80;;;11.20;;
17151;SDS011;8691;50.828;4.700;2023-04-24T06:03:03;10.10;;;9.10;;
17151;SDS011;8691;50.828;4.700;2023-04-24T06:05:31;10.77;;;9.20;;
17151;SDS011;8691;50.828;4.700;2023-04-24T06:07:57;14.95;;;13.38;;
17151;SDS011;8691;50.828;4.700;2023-04-24T06:10:24;11.80;;;9.68;;
17151;SDS011;8691;50.828;4.700;2023-04-24T06:12:51;11.00;;;9.47;;
17151;SDS011;8691;50.828;4.700;2023-04-24T06:15:18;10.77;;;9.73;;
17151;SDS011;8691;50.828;4.700;2023-04-24T06:17:45;11.17;;;9.50;;
17151;SDS011;8691;50.828;4.700;2023-04-24T06:20:12;10.70;;;9.37;;
17151;SDS011;8691;50.828;4.700;2023-04-24T06:22:39;13.00;;;9.87;;
17151;SDS011;8691;50.828;4.700;2023-04-24T06:25:05;12.50;;;10.60;;
17151;SDS011;8691;50.828;4.700;2023-04-24T06:27:32;11.68;;;10.48;;
17151;SDS011;8691;50.828;4.700;2023-04-24T06:29:59;14.35;;;11.15;;
17151;SDS011;8691;50.828;4.700;2023-04-24T06:32:26;12.77;;;11.10;;
17151;SDS011;8691;50.828;4.700;2023-04-24T06:34:53;11.70;;;8.30;;
17151;SDS011;8691;50.828;4.700;2023-04-24T06:37:20;16.20;;;11.12;;
17151;SDS011;8691;50.828;4.700;2023-04-24T06:39:46;13.32;;;10.98;;
17151;SDS011;8691;50.828;4.700;2023-04-24T06:42:13;14.80;;;11.40;;
17151;SDS011;8691;50.828;4.700;2023-04-24T06:44:40;15.38;;;10.98;;
17151;SDS011;8691;50.828;4.700;2023-04-24T06:47:07;13.30;;;11.43;;
17151;SDS011;8691;50.828;4.700;2023-04-24T06:49:37;15.05;;;13.20;;
17151;SDS011;8691;50.828;4.700;2023-04-24T06:52:04;17.40;;;13.43;;
17151;SDS011;8691;50.828;4.700;2023-04-24T06:54:31;12.18;;;10.85;;
17151;SDS011;8691;50.828;4.700;2023-04-24T06:57:01;14.17;;;11.93;;
17151;SDS011;8691;50.828;4.700;2023-04-24T06:59:25;16.67;;;14.65;;
17151;SDS011;8691;50.828;4.700;2023-04-24T07:01:52;17.38;;;15.57;;
17151;SDS011;8691;50.828;4.700;2023-04-24T07:04:18;14.30;;;12.10;;
17151;SDS011;8691;50.828;4.700;2023-04-24T07:06:45;15.48;;;12.35;;
17151;SDS011;8691;50.828;4.700;2023-04-24T07:09:12;14.75;;;12.05;;
17151;SDS011;8691;50.828;4.700;2023-04-24T07:11:45;16.03;;;12.70;;
17151;SDS011;8691;50.828;4.700;2023-04-24T07:14:13;14.27;;;12.27;;
17151;SDS011;8691;50.828;4.700;2023-04-24T07:16:40;15.52;;;13.73;;
17151;SDS011;8691;50.828;4.700;2023-04-24T07:19:08;18.00;;;14.25;;
17151;SDS011;8691;50.828;4.700;2023-04-24T07:21:34;17.15;;;14.30;;
17151;SDS011;8691;50.828;4.700;2023-04-24T07:24:01;18.05;;;14.98;;
17151;SDS011;8691;50.828;4.700;2023-04-24T07:26:29;17.23;;;14.80;;
17151;SDS011;8691;50.828;4.700;2023-04-24T07:28:55;14.52;;;12.95;;
17151;SDS011;8691;50.828;4.700;2023-04-24T07:31:22;17.47;;;13.13;;
17151;SDS011;8691;50.828;4.700;2023-04-24T07:33:49;17.52;;;12.85;;
17151;SDS011;8691;50.828;4.700;2023-04-24T07:36:16;19.88;;;12.85;;
17151;SDS011;8691;50.828;4.700;2023-04-24T07:38:43;15.88;;;12.75;;
17151;SDS011;8691;50.828;4.700;2023-04-24T07:41:10;16.52;;;12.65;;
17151;SDS011;8691;50.828;4.700;2023-04-24T07:43:37;18.40;;;13.43;;
17151;SDS011;8691;50.828;4.700;2023-04-24T07:46:03;15.43;;;13.23;;
17151;SDS011;8691;50.828;4.700;2023-04-24T07:48:30;16.20;;;12.98;;
17151;SDS011;8691;50.828;4.700;2023-04-24T07:50:57;14.27;;;11.85;;
17151;SDS011;8691;50.828;4.700;2023-04-24T07:53:24;13.97;;;9.47;;
17151;SDS011;8691;50.828;4.700;2023-04-24T07:55:51;15.95;;;11.93;;
17151;SDS011;8691;50.828;4.700;2023-04-24T07:58:18;14.95;;;11.43;;
17151;SDS011;8691;50.828;4.700;2023-04-24T08:00:45;14.40;;;11.65;;
17151;SDS011;8691;50.828;4.700;2023-04-24T08:03:12;14.45;;;11.98;;
17151;SDS011;8691;50.828;4.700;2023-04-24T08:05:38;14.48;;;11.52;;
17151;SDS011;8691;50.828;4.700;2023-04-24T08:08:05;18.97;;;17.17;;
17151;SDS011;8691;50.828;4.700;2023-04-24T08:10:32;13.60;;;11.62;;
17151;SDS011;8691;50.828;4.700;2023-04-24T08:12:59;11.90;;;9.43;;
17151;SDS011;8691;50.828;4.700;2023-04-24T08:15:27;10.60;;;8.23;;
17151;SDS011;8691;50.828;4.700;2023-04-24T08:17:53;9.23;;;5.67;;
17151;SDS011;8691;50.828;4.700;2023-04-24T08:20:19;8.25;;;5.90;;
17151;SDS011;8691;50.828;4.700;2023-04-24T08:22:46;9.47;;;5.60;;
17151;SDS011;8691;50.828;4.700;2023-04-24T08:25:13;11.45;;;6.22;;
17151;SDS011;8691;50.828;4.700;2023-04-24T08:27:40;8.70;;;5.78;;
17151;SDS011;8691;50.828;4.700;2023-04-24T08:30:07;12.90;;;6.33;;
17151;SDS011;8691;50.828;4.700;2023-04-24T08:32:34;8.23;;;5.80;;
17151;SDS011;8691;50.828;4.700;2023-04-24T08:35:01;9.70;;;5.90;;
17151;SDS011;8691;50.828;4.700;2023-04-24T08:37:29;9.73;;;6.55;;
17151;SDS011;8691;50.828;4.700;2023-04-24T08:39:56;11.60;;;7.10;;
17151;SDS011;8691;50.828;4.700;2023-04-24T08:42:23;10.00;;;6.82;;
17151;SDS011;8691;50.828;4.700;2023-04-24T08:44:50;13.90;;;7.55;;
17151;SDS011;8691;50.828;4.700;2023-04-24T08:47:17;14.38;;;8.02;;
17151;SDS011;8691;50.828;4.700;2023-04-24T08:49:44;12.27;;;7.47;;
17151;SDS011;8691;50.828;4.700;2023-04-24T08:52:11;10.17;;;7.00;;
17151;SDS011;8691;50.828;4.700;2023-04-24T08:54:38;10.50;;;7.30;;
17151;SDS011;8691;50.828;4.700;2023-04-24T08:57:05;10.45;;;6.22;;
17151;SDS011;8691;50.828;4.700;2023-04-24T08:59:32;9.70;;;5.30;;
17151;SDS011;8691;50.828;4.700;2023-04-24T09:01:59;8.25;;;5.10;;
17151;SDS011;8691;50.828;4.700;2023-04-24T09:04:26;8.47;;;4.90;;
17151;SDS011;8691;50.828;4.700;2023-04-24T09:06:56;7.93;;;5.10;;
17151;SDS011;8691;50.828;4.700;2023-04-24T09:09:23;7.20;;;4.53;;
17151;SDS011;8691;50.828;4.700;2023-04-24T09:11:50;7.47;;;4.95;;
17151;SDS011;8691;50.828;4.700;2023-04-24T09:14:16;8.53;;;4.83;;
17151;SDS011;8691;50.828;4.700;2023-04-24T09:16:43;8.38;;;4.97;;
17151;SDS011;8691;50.828;4.700;2023-04-24T09:19:10;9.63;;;4.90;;
17151;SDS011;8691;50.828;4.700;2023-04-24T09:21:37;8.20;;;4.30;;
17151;SDS011;8691;50.828;4.700;2023-04-24T09:24:06;7.33;;;4.47;;
17151;SDS011;8691;50.828;4.700;2023-04-24T09:26:37;8.38;;;4.20;;
17151;SDS011;8691;50.828;4.700;2023-04-24T09:29:03;6.90;;;4.10;;
17151;SDS011;8691;50.828;4.700;2023-04-24T09:31:30;6.43;;;3.60;;
17151;SDS011;8691;50.828;4.700;2023-04-24T09:36:36;7.65;;;3.90;;
17151;SDS011;8691;50.828;4.700;2023-04-24T09:38:55;6.82;;;4.18;;
17151;SDS011;8691;50.828;4.700;2023-04-24T09:41:20;7.05;;;4.00;;
17151;SDS011;8691;50.828;4.700;2023-04-24T09:43:47;5.80;;;3.60;;
17151;SDS011;8691;50.828;4.700;2023-04-24T09:46:15;7.38;;;3.47;;
17151;SDS011;8691;50.828;4.700;2023-04-24T09:48:41;6.03;;;3.70;;
17151;SDS011;8691;50.828;4.700;2023-04-24T09:51:08;7.28;;;3.50;;
17151;SDS011;8691;50.828;4.700;2023-04-24T09:53:38;7.85;;;3.75;;
17151;SDS011;8691;50.828;4.700;2023-04-24T09:56:08;8.70;;;3.90;;
17151;SDS011;8691;50.828;4.700;2023-04-24T09:58:35;4.68;;;3.62;;
17151;SDS011;8691;50.828;4.700;2023-04-24T10:01:01;6.50;;;3.60;;
17151;SDS011;8691;50.828;4.700;2023-04-24T10:03:31;6.90;;;3.80;;
17151;SDS011;8691;50.828;4.700;2023-04-24T10:05:59;6.67;;;3.90;;
17151;SDS011;8691;50.828;4.700;2023-04-24T10:08:25;7.43;;;3.60;;
17151;SDS011;8691;50.828;4.700;2023-04-24T10:10:52;5.65;;;3.55;;
17151;SDS011;8691;50.828;4.700;2023-04-24T10:13:20;6.83;;;3.90;;
17151;SDS011;8691;50.828;4.700;2023-04-24T10:15:47;7.03;;;3.83;;
17151;SDS011;8691;50.828;4.700;2023-04-24T10:18:13;6.47;;;4.00;;
17151;SDS011;8691;50.828;4.700;2023-04-24T10:20:40;6.03;;;3.58;;
17151;SDS011;8691;50.828;4.700;2023-04-24T10:23:08;5.20;;;3.10;;
17151;SDS011;8691;50.828;4.700;2023-04-24T10:25:36;6.62;;;3.50;;
17151;SDS011;8691;50.828;4.700;2023-04-24T10:28:03;6.30;;;3.30;;
17151;SDS011;8691;50.828;4.700;2023-04-24T10:30:33;8.68;;;3.65;;
17151;SDS011;8691;50.828;4.700;2023-04-24T10:33:02;6.80;;;3.50;;
17151;SDS011;8691;50.828;4.700;2023-04-24T10:35:31;6.00;;;3.17;;
17151;SDS011;8691;50.828;4.700;2023-04-24T10:38:18;6.75;;;3.58;;
17151;SDS011;8691;50.828;4.700;2023-04-24T10:40:34;5.83;;;3.20;;
17151;SDS011;8691;50.828;4.700;2023-04-24T10:43:04;5.20;;;2.97;;
17151;SDS011;8691;50.828;4.700;2023-04-24T10:45:30;6.22;;;3.47;;
17151;SDS011;8691;50.828;4.700;2023-04-24T10:48:04;5.57;;;3.10;;
17151;SDS011;8691;50.828;4.700;2023-04-24T10:50:41;5.57;;;3.35;;
17151;SDS011;8691;50.828;4.700;2023-04-24T10:53:07;6.53;;;3.42;;
17151;SDS011;8691;50.828;4.700;2023-04-24T10:55:40;6.38;;;3.70;;
17151;SDS011;8691;50.828;4.700;2023-04-24T10:58:09;6.43;;;3.50;;
17151;SDS011;8691;50.828;4.700;2023-04-24T11:00:39;4.43;;;3.07;;
17151;SDS011;8691;50.828;4.700;2023-04-24T11:03:07;5.97;;;3.30;;
17151;SDS011;8691;50.828;4.700;2023-04-24T11:08:23;4.83;;;3.00;;
17151;SDS011;8691;50.828;4.700;2023-04-24T11:10:56;6.55;;;3.45;;
17151;SDS011;8691;50.828;4.700;2023-04-24T11:14:00;5.93;;;3.40;;
17151;SDS011;8691;50.828;4.700;2023-04-24T11:19:02;5.17;;;3.23;;
17151;SDS011;8691;50.828;4.700;2023-04-24T11:21:31;6.90;;;3.40;;
17151;SDS011;8691;50.828;4.700;2023-04-24T11:26:55;5.88;;;3.70;;
17151;SDS011;8691;50.828;4.700;2023-04-24T11:29:21;7.93;;;3.90;;
17151;SDS011;8691;50.828;4.700;2023-04-24T11:31:48;8.43;;;4.20;;
17151;SDS011;8691;50.828;4.700;2023-04-24T11:34:15;7.20;;;3.83;;
17151;SDS011;8691;50.828;4.700;2023-04-24T11:36:43;6.25;;;3.55;;
17151;SDS011;8691;50.828;4.700;2023-04-24T11:39:10;6.63;;;3.70;;
17151;SDS011;8691;50.828;4.700;2023-04-24T11:41:37;6.17;;;3.70;;
17151;SDS011;8691;50.828;4.700;2023-04-24T11:44:05;6.47;;;3.80;;
17151;SDS011;8691;50.828;4.700;2023-04-24T11:46:30;8.48;;;3.97;;
17151;SDS011;8691;50.828;4.700;2023-04-24T11:48:58;6.97;;;4.15;;
17151;SDS011;8691;50.828;4.700;2023-04-24T11:51:25;7.18;;;4.60;;
17151;SDS011;8691;50.828;4.700;2023-04-24T11:53:55;6.13;;;3.80;;
17151;SDS011;8691;50.828;4.700;2023-04-24T11:56:21;5.97;;;4.10;;
17151;SDS011;8691;50.828;4.700;2023-04-24T11:58:48;6.00;;;4.28;;
17151;SDS011;8691;50.828;4.700;2023-04-24T12:01:14;5.77;;;4.17;;
17151;SDS011;8691;50.828;4.700;2023-04-24T12:03:41;5.47;;;4.00;;
17151;SDS011;8691;50.828;4.700;2023-04-24T12:06:09;5.30;;;3.72;;
17151;SDS011;8691;50.828;4.700;2023-04-24T12:08:36;5.90;;;4.30;;
17151;SDS011;8691;50.828;4.700;2023-04-24T12:11:03;5.63;;;4.13;;
17151;SDS011;8691;50.828;4.700;2023-04-24T12:13:29;6.27;;;3.90;;
17151;SDS011;8691;50.828;4.700;2023-04-24T12:15:58;3.23;;;2.93;;
17151;SDS011;8691;50.828;4.700;2023-04-24T12:18:25;4.78;;;3.75;;
17151;SDS011;8691;50.828;4.700;2023-04-24T12:20:52;5.35;;;4.10;;
17151;SDS011;8691;50.828;4.700;2023-04-24T12:23:34;6.00;;;4.28;;
17151;SDS011;8691;50.828;4.700;2023-04-24T12:26:03;5.03;;;4.43;;
17151;SDS011;8691;50.828;4.700;2023-04-24T12:28:40;5.53;;;4.20;;
17151;SDS011;8691;50.828;4.700;2023-04-24T12:31:04;6.32;;;4.60;;
17151;SDS011;8691;50.828;4.700;2023-04-24T12:33:34;4.97;;;3.80;;
17151;SDS011;8691;50.828;4.700;2023-04-24T12:36:00;6.45;;;4.25;;
17151;SDS011;8691;50.828;4.700;2023-04-24T12:38:28;5.30;;;4.18;;
17151;SDS011;8691;50.828;4.700;2023-04-24T12:41:01;5.37;;;4.40;;
17151;SDS011;8691;50.828;4.700;2023-04-24T12:43:30;5.30;;;4.17;;
17151;SDS011;8691;50.828;4.700;2023-04-24T12:45:57;6.75;;;4.20;;
17151;SDS011;8691;50.828;4.700;2023-04-24T12:48:24;4.53;;;3.70;;
17151;SDS011;8691;50.828;4.700;2023-04-24T12:50:53;5.33;;;4.00;;
17151;SDS011;8691;50.828;4.700;2023-04-24T12:53:20;7.63;;;3.93;;
17151;SDS011;8691;50.828;4.700;2023-04-24T12:55:47;6.10;;;3.80;;
17151;SDS011;8691;50.828;4.700;2023-04-24T12:58:13;3.83;;;3.13;;
17151;SDS011;8691;50.828;4.700;2023-04-24T13:00:40;4.90;;;3.15;;
17151;SDS011;8691;50.828;4.700;2023-04-24T13:03:07;4.43;;;3.33;;
17151;SDS011;8691;50.828;4.700;2023-04-24T13:05:35;4.18;;;3.10;;
17151;SDS011;8691;50.828;4.700;2023-04-24T13:08:01;4.10;;;3.23;;
17151;SDS011;8691;50.828;4.700;2023-04-24T13:10:28;4.80;;;3.60;;
17151;SDS011;8691;50.828;4.700;2023-04-24T13:12:55;3.90;;;3.42;;
17151;SDS011;8691;50.828;4.700;2023-04-24T13:15:22;4.50;;;3.88;;
17151;SDS011;8691;50.828;4.700;2023-04-24T13:17:50;4.47;;;3.42;;
17151;SDS011;8691;50.828;4.700;2023-04-24T13:20:16;5.03;;;3.33;;
17151;SDS011;8691;50.828;4.700;2023-04-24T13:22:43;5.50;;;3.55;;
17151;SDS011;8691;50.828;4.700;2023-04-24T13:25:10;4.22;;;3.10;;
17151;SDS011;8691;50.828;4.700;2023-04-24T13:27:40;4.03;;;3.40;;
17151;SDS011;8691;50.828;4.700;2023-04-24T13:30:07;5.10;;;3.43;;
17151;SDS011;8691;50.828;4.700;2023-04-24T13:32:34;4.17;;;3.17;;
17151;SDS011;8691;50.828;4.700;2023-04-24T13:35:01;4.30;;;3.00;;
17151;SDS011;8691;50.828;4.700;2023-04-24T13:37:27;3.15;;;2.85;;
17151;SDS011;8691;50.828;4.700;2023-04-24T13:39:54;3.38;;;2.70;;
17151;SDS011;8691;50.828;4.700;2023-04-24T13:42:21;4.27;;;2.70;;
17151;SDS011;8691;50.828;4.700;2023-04-24T13:44:49;4.97;;;2.80;;
17151;SDS011;8691;50.828;4.700;2023-04-24T13:47:16;3.20;;;2.70;;
17151;SDS011;8691;50.828;4.700;2023-04-24T13:49:42;3.90;;;2.60;;
17151;SDS011;8691;50.828;4.700;2023-04-24T13:52:09;3.97;;;2.73;;
17151;SDS011;8691;50.828;4.700;2023-04-24T13:54:36;2.92;;;2.30;;
17151;SDS011;8691;50.828;4.700;2023-04-24T13:57:03;3.43;;;2.60;;
17151;SDS011;8691;50.828;4.700;2023-04-24T13:59:30;4.03;;;2.60;;
17151;SDS011;8691;50.828;4.700;2023-04-24T14:01:57;3.53;;;2.53;;
17151;SDS011;8691;50.828;4.700;2023-04-24T14:04:24;4.62;;;2.70;;
17151;SDS011;8691;50.828;4.700;2023-04-24T14:06:51;4.22;;;2.70;;
17151;SDS011;8691;50.828;4.700;2023-04-24T14:09:17;3.23;;;2.30;;
17151;SDS011;8691;50.828;4.700;2023-04-24T14:11:44;4.80;;;2.80;;
17151;SDS011;8691;50.828;4.700;2023-04-24T14:14:11;5.90;;;2.60;;
17151;SDS011;8691;50.828;4.700;2023-04-24T14:16:38;3.70;;;2.40;;
17151;SDS011;8691;50.828;4.700;2023-04-24T14:19:05;3.90;;;2.40;;
17151;SDS011;8691;50.828;4.700;2023-04-24T14:21:33;3.58;;;2.60;;
17151;SDS011;8691;50.828;4.700;2023-04-24T14:24:00;3.78;;;2.47;;
17151;SDS011;8691;50.828;4.700;2023-04-24T14:26:27;6.50;;;3.70;;
17151;SDS011;8691;50.828;4.700;2023-04-24T14:28:54;4.68;;;2.58;;
17151;SDS011;8691;50.828;4.700;2023-04-24T14:31:21;4.13;;;2.50;;
17151;SDS011;8691;50.828;4.700;2023-04-24T14:33:49;3.80;;;2.30;;
17151;SDS011;8691;50.828;4.700;2023-04-24T14:36:15;4.73;;;2.70;;
17151;SDS011;8691;50.828;4.700;2023-04-24T14:38:42;4.47;;;2.30;;
17151;SDS011;8691;50.828;4.700;2023-04-24T14:41:09;5.23;;;2.57;;
17151;SDS011;8691;50.828;4.700;2023-04-24T14:43:36;2.70;;;2.13;;
17151;SDS011;8691;50.828;4.700;2023-04-24T14:46:03;4.25;;;2.80;;
17151;SDS011;8691;50.828;4.700;2023-04-24T14:48:29;4.83;;;2.57;;
17151;SDS011;8691;50.828;4.700;2023-04-24T14:50:57;3.17;;;2.08;;
17151;SDS011;8691;50.828;4.700;2023-04-24T14:53:25;4.40;;;2.40;;
17151;SDS011;8691;50.828;4.700;2023-04-24T14:55:52;4.33;;;2.53;;
17151;SDS011;8691;50.828;4.700;2023-04-24T14:58:18;5.60;;;2.30;;
17151;SDS011;8691;50.828;4.700;2023-04-24T15:00:46;3.47;;;2.40;;